createdAt,value
2018-06-28T00:00:02.870Z,13.8
2018-06-28T00:15:03.198Z,13.8
2018-06-28T00:30:02.659Z,13.6
2018-06-28T00:45:02.970Z,13.6
2018-06-28T01:00:02.284Z,13.6
2018-06-28T01:15:02.578Z,13.6
2018-06-28T01:30:02.976Z,13.4
2018-06-28T01:45:02.267Z,13.4
2018-06-28T02:00:02.590Z,13.5
2018-06-28T02:15:02.868Z,13.6
2018-06-28T02:30:02.272Z,13.4
2018-06-28T02:45:02.663Z,13.4
2018-06-28T03:00:02.958Z,13.3
2018-06-28T03:15:02.269Z,13.4
2018-06-28T03:30:02.674Z,13.3
2018-06-28T03:45:02.983Z,13.3
2018-06-28T04:00:02.286Z,13.2
2018-06-28T04:15:02.592Z,13.3
2018-06-28T04:30:02.979Z,13.2
2018-06-28T04:45:02.280Z,13.3
2018-06-28T05:00:02.569Z,13.4
2018-06-28T05:15:02.889Z,13.4
2018-06-28T05:30:02.255Z,13.5
2018-06-28T05:45:02.590Z,13.4
2018-06-28T06:00:02.863Z,13.5
2018-06-28T06:15:03.219Z,13.6
2018-06-28T06:30:02.712Z,13.7
2018-06-28T06:45:02.987Z,13.6
2018-06-28T07:00:02.327Z,13.8
2018-06-28T07:15:02.652Z,13.9
2018-06-28T07:30:03.081Z,14.1
2018-06-28T07:45:02.364Z,14.5
2018-06-28T08:00:02.738Z,14.8
2018-06-28T08:15:03.069Z,14.9
2018-06-28T08:30:02.468Z,14.8
2018-06-28T08:45:02.784Z,15
2018-06-28T09:00:03.096Z,15.1
2018-06-28T09:15:02.454Z,15.2
2018-06-28T09:30:02.872Z,15.1
2018-06-28T09:45:03.224Z,15.2
2018-06-28T10:00:02.734Z,15.2
2018-06-28T10:15:03.065Z,14.9
2018-06-28T10:30:02.479Z,14.9
2018-06-28T10:45:02.763Z,14.9
2018-06-28T11:00:03.060Z,15.2
2018-06-28T11:15:02.618Z,15.2
2018-06-28T11:30:02.996Z,15.1
2018-06-28T11:45:02.344Z,15.1
2018-06-28T12:00:02.794Z,15.2
2018-06-28T12:15:03.494Z,15.2
2018-06-28T12:30:02.957Z,15.2
2018-06-28T12:45:02.361Z,15.2
2018-06-28T13:00:02.735Z,15.2
2018-06-28T13:15:03.086Z,15.3
2018-06-28T13:30:02.482Z,15.3
2018-06-28T13:45:02.788Z,15.3
2018-06-28T14:00:03.170Z,15.3
2018-06-28T14:15:02.618Z,15.2
2018-06-28T14:30:03.123Z,15.1
2018-06-28T14:45:02.613Z,15.1
2018-06-28T15:00:03.082Z,15.2
2018-06-28T15:15:02.374Z,15.2
2018-06-28T15:30:02.796Z,15.3
2018-06-28T15:45:03.112Z,15.2
2018-06-28T16:00:02.387Z,15.2
2018-06-28T16:15:02.706Z,15.2
2018-06-28T16:30:03.098Z,15.2
2018-06-28T16:45:02.380Z,15.2
2018-06-28T17:00:02.683Z,15.2
2018-06-28T17:15:03.054Z,15.3
2018-06-28T17:30:02.473Z,15.4
2018-06-28T17:45:02.792Z,15.3
2018-06-28T18:00:03.093Z,15.4
2018-06-28T18:15:02.462Z,15.4
2018-06-28T18:30:02.859Z,15.3
2018-06-28T18:45:03.171Z,15.3
2018-06-28T19:00:02.533Z,15.2
2018-06-28T19:15:03.000Z,15.2
2018-06-28T19:30:02.372Z,15.2
2018-06-28T19:45:02.680Z,15.2
2018-06-28T20:00:03.067Z,15.2
2018-06-28T20:15:02.375Z,15.2
2018-06-28T20:30:02.829Z,15.2
2018-06-28T20:45:03.206Z,15.3
2018-06-28T21:00:02.572Z,15.3
2018-06-28T21:15:02.871Z,15.3
2018-06-28T21:30:02.273Z,15.2
2018-06-28T21:45:02.576Z,15.2
2018-06-28T22:00:02.878Z,15.2
2018-06-28T22:15:03.202Z,15.1
2018-06-28T22:30:02.779Z,15.2
2018-06-28T22:45:03.448Z,15.2
2018-06-28T23:00:02.798Z,15.1
2018-06-28T23:15:03.084Z,15.2
2018-06-28T23:30:02.476Z,15.2
2018-06-28T23:45:03.026Z,15.1
